createdAt,value
2018-04-23T00:02:00.402Z,5.70
2018-04-23T00:04:26.583Z,6.30
2018-04-23T00:06:52.774Z,5.83
2018-04-23T00:09:18.906Z,6.40
2018-04-23T00:11:45.133Z,5.87
2018-04-23T00:14:11.355Z,6.03
2018-04-23T00:16:37.602Z,6.77
2018-04-23T00:19:03.794Z,6.63
2018-04-23T00:21:29.988Z,6.60
2018-04-23T00:23:56.816Z,6.90
2018-04-23T00:26:23.017Z,6.80
2018-04-23T00:28:49.249Z,7.43
2018-04-23T00:31:15.425Z,7.07
2018-04-23T00:33:43.285Z,6.27
2018-04-23T00:36:09.493Z,6.27
2018-04-23T00:38:35.644Z,6.17
2018-04-23T00:41:02.559Z,6.60
2018-04-23T00:43:28.792Z,6.30
2018-04-23T00:45:54.954Z,6.40
2018-04-23T00:48:21.899Z,7.00
2018-04-23T00:50:48.859Z,6.30
2018-04-23T00:53:27.387Z,7.20
2018-04-23T00:55:53.575Z,6.80
2018-04-23T00:58:19.789Z,6.83
2018-04-23T01:00:46.057Z,7.40
2018-04-23T01:03:13.010Z,7.20
2018-04-23T01:05:39.201Z,7.07
2018-04-23T01:08:05.407Z,7.80
2018-04-23T01:10:31.598Z,6.57
2018-04-23T01:12:58.789Z,6.60
2018-04-23T01:15:25.050Z,6.77
2018-04-23T01:17:51.282Z,7.10
2018-04-23T01:20:17.469Z,6.60
2018-04-23T01:22:43.689Z,7.27
2018-04-23T01:25:09.844Z,7.63
2018-04-23T01:27:36.044Z,7.10
2018-04-23T01:30:02.277Z,6.53
2018-04-23T01:32:28.491Z,6.33
2018-04-23T01:34:54.681Z,7.60
2018-04-23T01:37:20.873Z,6.50
2018-04-23T01:39:47.054Z,6.93
2018-04-23T01:42:14.015Z,6.43
2018-04-23T01:44:40.997Z,6.97
2018-04-23T01:47:07.178Z,6.30
2018-04-23T01:49:34.131Z,7.57
2018-04-23T01:52:00.399Z,6.70
2018-04-23T01:54:26.580Z,6.27
2018-04-23T01:56:54.446Z,7.10
2018-04-23T01:59:21.392Z,7.93
2018-04-23T02:01:48.331Z,6.67
2018-04-23T02:04:15.274Z,8.37
2018-04-23T02:06:42.243Z,6.77
2018-04-23T02:09:08.438Z,7.63
2018-04-23T02:11:34.676Z,8.27
2018-04-23T02:14:01.671Z,7.17
2018-04-23T02:16:27.882Z,7.40
2018-04-23T02:18:54.075Z,7.73
2018-04-23T02:21:20.257Z,7.60
2018-04-23T02:23:46.404Z,6.60
2018-04-23T02:26:12.708Z,6.20
2018-04-23T02:28:38.914Z,7.47
2018-04-23T02:31:05.079Z,6.70
2018-04-23T02:33:31.252Z,6.70
2018-04-23T02:35:58.187Z,6.90
2018-04-23T02:38:25.143Z,7.00
2018-04-23T02:40:52.065Z,6.70
2018-04-23T02:43:18.283Z,7.27
2018-04-23T02:45:44.464Z,7.57
2018-04-23T02:48:10.627Z,6.83
2018-04-23T02:50:36.842Z,7.40
2018-04-23T02:53:03.027Z,7.20
2018-04-23T02:55:29.962Z,7.70
2018-04-23T02:57:56.184Z,7.13
2018-04-23T03:00:22.331Z,7.20
2018-04-23T03:02:49.280Z,6.63
2018-04-23T03:05:16.171Z,6.73
2018-04-23T03:07:42.375Z,7.90
2018-04-23T03:10:08.578Z,7.80
2018-04-23T03:12:35.561Z,8.10
2018-04-23T03:15:01.864Z,7.43
2018-04-23T03:17:28.115Z,6.90
2018-04-23T03:19:54.441Z,7.97
2018-04-23T03:22:20.583Z,8.07
2018-04-23T03:24:46.827Z,7.23
2018-04-23T03:27:13.024Z,7.00
2018-04-23T03:29:39.269Z,7.47
2018-04-23T03:32:05.862Z,6.60
2018-04-23T03:34:32.902Z,8.20
2018-04-23T03:36:59.812Z,8.00
2018-04-23T03:39:26.013Z,7.00
2018-04-23T03:41:52.201Z,6.93
2018-04-23T03:44:18.456Z,7.20
2018-04-23T03:46:45.358Z,8.50
2018-04-23T03:49:11.527Z,6.87
2018-04-23T03:51:38.433Z,8.20
2018-04-23T03:54:04.618Z,7.10
2018-04-23T03:56:30.830Z,8.27
2018-04-23T03:58:57.744Z,6.93
2018-04-23T04:01:23.905Z,7.33
2018-04-23T04:03:50.081Z,7.80
2018-04-23T04:06:16.252Z,8.33
2018-04-23T04:08:42.805Z,7.83
2018-04-23T04:11:08.946Z,7.90
2018-04-23T04:13:48.005Z,8.57
2018-04-23T04:16:26.452Z,8.33
2018-04-23T04:18:52.637Z,8.27
2018-04-23T04:21:18.831Z,7.60
2018-04-23T04:23:45.731Z,7.80
2018-04-23T04:26:11.891Z,7.63
2018-04-23T04:28:38.810Z,8.30
2018-04-23T04:31:05.072Z,7.87
2018-04-23T04:33:32.002Z,8.23
2018-04-23T04:35:58.917Z,7.20
2018-04-23T04:38:25.094Z,8.30
2018-04-23T04:40:51.443Z,7.90
2018-04-23T04:43:17.596Z,7.50
2018-04-23T04:45:43.773Z,7.97
2018-04-23T04:48:10.789Z,8.77
2018-04-23T04:50:37.004Z,8.53
2018-04-23T04:53:03.230Z,6.90
2018-04-23T04:55:29.460Z,8.17
2018-04-23T04:57:56.777Z,8.90
2018-04-23T05:00:22.963Z,8.10
2018-04-23T05:02:49.173Z,9.10
2018-04-23T05:05:16.239Z,8.13
2018-04-23T05:07:42.428Z,8.30
2018-04-23T05:10:08.690Z,8.27
2018-04-23T05:12:34.916Z,9.30
2018-04-23T05:15:01.073Z,9.73
2018-04-23T05:17:28.031Z,8.30
2018-04-23T05:19:55.043Z,7.13
2018-04-23T05:22:23.176Z,8.97
2018-04-23T05:24:50.156Z,9.40
2018-04-23T05:27:16.543Z,9.67
2018-04-23T05:29:42.869Z,9.10
2018-04-23T05:32:09.800Z,8.20
2018-04-23T05:34:36.908Z,8.57
2018-04-23T05:37:03.334Z,9.50
2018-04-23T05:39:29.757Z,9.67
2018-04-23T05:41:55.998Z,9.00
2018-04-23T05:44:23.384Z,8.50
2018-04-23T05:46:50.656Z,8.93
2018-04-23T05:49:17.640Z,8.30
2018-04-23T05:51:43.934Z,8.50
2018-04-23T05:54:12.121Z,9.67
2018-04-23T05:56:38.404Z,8.40
2018-04-23T05:59:04.599Z,9.20
2018-04-23T06:01:30.790Z,9.10
2018-04-23T06:03:57.704Z,8.33
2018-04-23T06:06:23.912Z,8.50
2018-04-23T06:08:50.124Z,9.30
2018-04-23T06:11:16.308Z,9.43
2018-04-23T06:13:42.463Z,8.03
2018-04-23T06:16:09.417Z,7.73
2018-04-23T06:18:35.623Z,9.20
2018-04-23T06:21:02.581Z,8.77
2018-04-23T06:23:29.504Z,8.80
2018-04-23T06:25:55.734Z,10.00
2018-04-23T06:28:21.958Z,8.87
2018-04-23T06:30:48.200Z,9.93
2018-04-23T06:33:15.209Z,8.20
2018-04-23T06:35:41.402Z,8.80
2018-04-23T06:38:07.625Z,8.33
2018-04-23T06:40:33.776Z,8.70
2018-04-23T06:42:59.942Z,7.90
2018-04-23T06:45:26.129Z,8.60
2018-04-23T06:47:52.325Z,7.57
2018-04-23T06:50:19.212Z,9.47
2018-04-23T06:52:45.444Z,8.10
2018-04-23T06:55:11.599Z,8.60
2018-04-23T06:57:37.746Z,8.60
2018-04-23T07:00:04.702Z,10.27
2018-04-23T07:02:31.683Z,7.93
2018-04-23T07:04:57.876Z,8.97
2018-04-23T07:07:24.379Z,8.60
2018-04-23T07:09:50.566Z,8.53
2018-04-23T07:12:18.450Z,8.80
2018-04-23T07:14:44.658Z,7.77
2018-04-23T07:17:10.825Z,8.73
2018-04-23T07:19:37.064Z,8.10
2018-04-23T07:22:03.241Z,7.80
2018-04-23T07:24:29.477Z,7.80
2018-04-23T07:26:55.645Z,7.43
2018-04-23T07:29:21.917Z,7.30
2018-04-23T07:31:48.120Z,7.50
2018-04-23T07:34:14.314Z,7.80
2018-04-23T07:36:40.546Z,9.07
2018-04-23T07:39:06.776Z,8.37
2018-04-23T07:41:32.949Z,8.47
2018-04-23T07:43:59.840Z,9.30
2018-04-23T07:46:26.041Z,7.93
2018-04-23T07:48:52.201Z,7.93
2018-04-23T07:51:18.437Z,7.73
2018-04-23T07:53:44.615Z,7.50
2018-04-23T07:56:10.820Z,7.23
2018-04-23T07:58:38.710Z,7.63
2018-04-23T08:01:05.644Z,8.10
2018-04-23T08:03:32.561Z,9.50
2018-04-23T08:05:58.756Z,9.57
2018-04-23T08:08:25.102Z,10.70
2018-04-23T08:10:51.282Z,10.40
2018-04-23T08:13:18.325Z,9.90
2018-04-23T08:15:45.295Z,8.70
2018-04-23T08:18:11.473Z,8.43
2018-04-23T08:20:38.229Z,8.87
2018-04-23T08:23:04.409Z,9.10
2018-04-23T08:25:30.608Z,9.30
2018-04-23T08:27:57.542Z,9.40
2018-04-23T08:30:24.470Z,8.37
2018-04-23T08:32:50.726Z,7.20
2018-04-23T08:35:17.670Z,8.17
2018-04-23T08:37:44.597Z,8.60
2018-04-23T08:40:10.726Z,8.70
2018-04-23T08:42:37.692Z,8.37
2018-04-23T08:45:04.636Z,8.83
2018-04-23T08:47:31.550Z,7.53
2018-04-23T08:49:57.702Z,7.33
2018-04-23T08:52:24.773Z,6.43
2018-04-23T08:54:50.994Z,8.70
2018-04-23T08:57:17.190Z,7.67
2018-04-23T08:59:43.377Z,7.53
2018-04-23T09:02:09.537Z,7.37
2018-04-23T09:04:35.711Z,7.27
2018-04-23T09:07:01.909Z,7.13
2018-04-23T09:09:28.103Z,7.57
2018-04-23T09:11:54.321Z,6.80
2018-04-23T09:14:20.547Z,7.90
2018-04-23T09:16:46.692Z,8.50
2018-04-23T09:19:12.872Z,7.20
2018-04-23T09:21:39.072Z,7.23
2018-04-23T09:24:06.277Z,7.37
2018-04-23T09:26:35.203Z,7.13
2018-04-23T09:29:01.392Z,7.40
2018-04-23T09:31:27.583Z,8.40
2018-04-23T09:33:54.511Z,6.80
2018-04-23T09:36:20.685Z,7.00
2018-04-23T09:38:46.892Z,7.83
2018-04-23T09:41:13.926Z,7.43
2018-04-23T09:43:41.325Z,7.47
2018-04-23T09:46:07.706Z,7.50
2018-04-23T09:48:33.883Z,7.30
2018-04-23T09:51:00.128Z,7.70
2018-04-23T09:53:26.328Z,7.30
2018-04-23T09:55:53.281Z,7.20
2018-04-23T09:58:19.497Z,8.10
2018-04-23T10:00:45.680Z,7.43
2018-04-23T10:03:11.953Z,7.37
2018-04-23T10:05:39.088Z,7.73
2018-04-23T10:08:06.062Z,8.83
2018-04-23T10:10:32.273Z,13.30
2018-04-23T10:12:59.228Z,7.13
2018-04-23T10:15:26.177Z,9.80
2018-04-23T10:17:52.365Z,7.70
2018-04-23T10:20:18.572Z,7.43
2018-04-23T10:22:45.759Z,8.30
2018-04-23T10:25:12.809Z,7.00
2018-04-23T10:27:39.048Z,8.07
2018-04-23T10:30:05.292Z,8.83
2018-04-23T10:32:32.380Z,7.30
2018-04-23T10:34:59.456Z,9.40
2018-04-23T10:37:25.713Z,7.60
2018-04-23T10:39:52.073Z,8.67
2018-04-23T10:42:18.292Z,7.20
2018-04-23T10:44:44.489Z,6.67
2018-04-23T10:47:11.612Z,7.67
2018-04-23T10:49:39.095Z,7.37
2018-04-23T10:52:06.047Z,7.60
2018-04-23T10:54:33.318Z,6.93
2018-04-23T10:57:01.062Z,6.90
2018-04-23T10:59:28.312Z,7.83
2018-04-23T11:01:55.958Z,8.47
2018-04-23T11:04:22.151Z,13.97
2018-04-23T11:06:51.426Z,7.33
2018-04-23T11:09:19.297Z,9.60
2018-04-23T11:11:45.534Z,7.80
2018-04-23T11:14:12.873Z,12.87
2018-04-23T11:16:39.766Z,6.70
2018-04-23T11:19:06.025Z,8.50
2018-04-23T11:21:34.284Z,6.87
2018-04-23T11:24:03.189Z,7.13
2018-04-23T11:26:30.159Z,27.20
2018-04-23T11:28:57.300Z,7.40
2018-04-23T11:31:30.544Z,8.70
2018-04-23T11:33:56.772Z,7.67
2018-04-23T11:36:23.525Z,6.67
2018-04-23T11:38:49.861Z,8.43
2018-04-23T11:41:16.079Z,8.13
2018-04-23T11:43:42.744Z,7.23
2018-04-23T11:46:09.775Z,7.37
2018-04-23T11:48:37.376Z,7.63
2018-04-23T11:51:04.350Z,6.93
2018-04-23T11:53:31.349Z,7.83
2018-04-23T11:55:57.554Z,7.57
2018-04-23T11:58:24.007Z,8.23
2018-04-23T12:00:50.357Z,7.10
2018-04-23T12:03:17.380Z,7.03
2018-04-23T12:05:45.569Z,7.10
2018-04-23T12:08:12.390Z,7.00
2018-04-23T12:10:38.561Z,6.60
2018-04-23T12:13:05.576Z,5.40
2018-04-23T12:15:32.741Z,6.87
2018-04-23T12:18:01.879Z,6.30
2018-04-23T12:20:29.120Z,5.70
2018-04-23T12:22:55.582Z,5.77
2018-04-23T12:25:23.845Z,5.87
2018-04-23T12:27:52.178Z,5.67
2018-04-23T12:30:19.290Z,4.60
2018-04-23T12:32:45.600Z,5.87
2018-04-23T12:35:12.127Z,5.90
2018-04-23T12:37:38.961Z,5.57
2018-04-23T12:40:06.723Z,5.17
2018-04-23T12:42:33.114Z,4.87
2018-04-23T12:44:59.333Z,12.90
2018-04-23T12:47:25.539Z,5.83
2018-04-23T12:49:51.919Z,10.10
2018-04-23T12:52:18.117Z,5.03
2018-04-23T12:54:44.328Z,4.97
2018-04-23T12:57:10.588Z,5.17
2018-04-23T12:59:36.889Z,5.57
2018-04-23T13:02:03.193Z,5.03
2018-04-23T13:04:30.207Z,4.83
2018-04-23T13:06:56.399Z,4.60
2018-04-23T13:09:23.449Z,5.37
2018-04-23T13:11:49.689Z,4.83
2018-04-23T13:14:16.632Z,5.00
2018-04-23T13:16:43.741Z,4.03
2018-04-23T13:19:10.252Z,4.50
2018-04-23T13:21:37.168Z,4.20
2018-04-23T13:24:03.393Z,5.00
2018-04-23T13:36:14.727Z,4.60
2018-04-23T13:38:41.053Z,4.07
2018-04-23T13:41:07.289Z,3.93
2018-04-23T13:43:33.538Z,4.17
2018-04-23T13:46:00.603Z,4.30
2018-04-23T13:48:26.871Z,3.80
2018-04-23T13:50:53.933Z,5.30
2018-04-23T13:53:20.190Z,4.13
2018-04-23T13:55:46.563Z,3.33
2018-04-23T13:58:12.847Z,3.80
2018-04-23T14:00:39.065Z,3.60
2018-04-23T14:03:05.364Z,3.77
2018-04-23T14:05:32.332Z,5.20
2018-04-23T14:07:59.295Z,3.87
2018-04-23T14:10:26.493Z,4.20
2018-04-23T14:12:53.620Z,4.03
2018-04-23T14:15:19.834Z,3.80
2018-04-23T14:17:46.206Z,4.50
2018-04-23T14:20:12.445Z,3.83
2018-04-23T14:22:39.515Z,4.13
2018-04-23T14:25:05.782Z,4.00
2018-04-23T14:27:32.030Z,3.40
2018-04-23T14:29:58.240Z,4.60
2018-04-23T14:32:24.490Z,4.50
2018-04-23T14:34:50.803Z,3.57
2018-04-23T14:37:17.047Z,3.50
2018-04-23T14:39:43.282Z,4.10
2018-04-23T14:42:11.378Z,4.60
2018-04-23T14:44:38.379Z,3.73
2018-04-23T14:47:05.566Z,4.70
2018-04-23T14:49:31.773Z,5.00
2018-04-23T14:51:58.033Z,4.90
2018-04-23T14:54:25.004Z,3.70
2018-04-23T14:56:51.238Z,4.53
2018-04-23T14:59:17.484Z,3.80
2018-04-23T15:01:43.705Z,4.13
2018-04-23T15:04:10.807Z,4.20
2018-04-23T15:06:37.059Z,4.53
2018-04-23T15:09:03.351Z,4.70
2018-04-23T15:11:29.634Z,4.03
2018-04-23T15:13:56.645Z,4.17
2018-04-23T15:16:23.650Z,4.83
2018-04-23T15:18:50.060Z,4.70
2018-04-23T15:21:16.455Z,4.50
2018-04-23T15:23:42.670Z,4.13
2018-04-23T15:26:08.890Z,4.00
2018-04-23T15:28:35.182Z,4.10
2018-04-23T15:31:01.688Z,4.30
2018-04-23T15:33:29.678Z,4.70
2018-04-23T15:35:55.964Z,4.90
2018-04-23T15:38:22.494Z,4.50
2018-04-23T15:40:48.779Z,3.50
2018-04-23T15:43:15.058Z,4.30
2018-04-23T15:45:41.950Z,4.10
2018-04-23T15:48:08.237Z,3.90
2018-04-23T15:50:34.478Z,4.13
2018-04-23T15:53:00.757Z,4.30
2018-04-23T15:55:26.946Z,4.33
2018-04-23T15:57:55.384Z,3.93
2018-04-23T16:00:21.621Z,4.20
2018-04-23T16:02:47.882Z,4.37
2018-04-23T16:05:14.095Z,3.60
2018-04-23T16:07:41.313Z,3.77
2018-04-23T16:10:08.478Z,4.00
2018-04-23T16:12:34.724Z,3.43
2018-04-23T16:15:01.685Z,3.20
2018-04-23T16:17:27.942Z,3.60
2018-04-23T16:19:54.944Z,3.20
2018-04-23T16:22:21.764Z,3.70
2018-04-23T16:24:48.022Z,4.17
2018-04-23T16:27:15.065Z,3.87
2018-04-23T16:29:41.404Z,3.47
2018-04-23T16:32:08.931Z,3.50
2018-04-23T16:34:35.218Z,4.27
2018-04-23T16:37:02.179Z,3.80
2018-04-23T16:39:28.424Z,3.47
2018-04-23T16:41:55.545Z,3.77
2018-04-23T16:44:27.166Z,3.70
2018-04-23T16:46:49.115Z,3.90
2018-04-23T16:49:16.999Z,3.93
2018-04-23T16:51:45.200Z,3.50
2018-04-23T16:54:11.525Z,3.80
2018-04-23T16:56:37.775Z,3.40
2018-04-23T16:59:03.989Z,3.90
2018-04-23T17:01:30.233Z,4.13
2018-04-23T17:03:56.481Z,3.93
2018-04-23T17:06:23.549Z,4.73
2018-04-23T17:08:49.767Z,4.00
2018-04-23T17:11:16.017Z,3.30
2018-04-23T17:13:42.247Z,3.57
2018-04-23T17:16:09.312Z,3.83
2018-04-23T17:18:36.832Z,3.60
2018-04-23T17:21:03.060Z,4.50
2018-04-23T17:23:29.341Z,4.17
2018-04-23T17:25:55.581Z,3.57
2018-04-23T17:28:21.851Z,3.40
2018-04-23T17:30:48.081Z,3.90
2018-04-23T17:33:14.334Z,3.80
2018-04-23T17:35:41.329Z,4.57
2018-04-23T17:38:08.413Z,3.83
2018-04-23T17:40:34.667Z,4.03
2018-04-23T17:43:01.908Z,3.60
2018-04-23T17:45:29.326Z,4.00
2018-04-23T17:47:55.601Z,3.63
2018-04-23T17:50:22.629Z,3.73
2018-04-23T17:52:48.993Z,4.37
2018-04-23T17:55:16.297Z,3.07
2018-04-23T17:57:42.536Z,3.60
2018-04-23T18:00:10.803Z,3.30
2018-04-23T18:02:37.789Z,3.47
2018-04-23T18:05:04.877Z,4.07
2018-04-23T18:07:31.249Z,4.03
2018-04-23T18:09:57.535Z,4.33
2018-04-23T18:12:23.779Z,3.90
2018-04-23T18:14:50.106Z,3.73
2018-04-23T18:17:16.372Z,3.10
2018-04-23T18:19:42.600Z,3.47
2018-04-23T18:22:08.829Z,4.30
2018-04-23T18:24:35.112Z,4.00
2018-04-23T18:27:01.357Z,3.47
2018-04-23T18:29:28.531Z,4.20
2018-04-23T18:31:54.820Z,3.93
2018-04-23T18:34:21.063Z,3.80
2018-04-23T18:36:48.936Z,3.87
2018-04-23T18:39:15.781Z,3.83
2018-04-23T18:41:42.502Z,4.20
2018-04-23T18:44:09.560Z,3.77
2018-04-23T18:46:35.877Z,3.23
2018-04-23T18:49:02.176Z,3.63
2018-04-23T18:51:29.293Z,3.40
2018-04-23T18:53:56.667Z,4.00
2018-04-23T18:56:23.059Z,4.20
2018-04-23T18:58:50.526Z,3.80
2018-04-23T19:01:16.870Z,3.50
2018-04-23T19:03:43.575Z,3.83
2018-04-23T19:06:09.923Z,4.53
2018-04-23T19:08:36.912Z,3.90
2018-04-23T19:11:05.493Z,3.90
2018-04-23T19:13:31.755Z,3.90
2018-04-23T19:15:58.827Z,4.23
2018-04-23T19:18:25.030Z,3.27
2018-04-23T19:20:52.084Z,3.10
2018-04-23T19:23:18.933Z,3.70
2018-04-23T19:25:48.243Z,3.00
2018-04-23T19:28:14.543Z,3.80
2018-04-23T19:30:41.621Z,3.30
2018-04-23T19:33:08.142Z,3.57
2018-04-23T19:35:34.504Z,3.77
2018-04-23T19:38:00.773Z,3.60
2018-04-23T19:40:27.028Z,3.87
2018-04-23T19:42:55.256Z,3.23
2018-04-23T19:45:21.593Z,4.03
2018-04-23T19:47:47.895Z,4.23
2018-04-23T19:50:14.390Z,3.33
2018-04-23T19:52:41.435Z,3.90
2018-04-23T19:55:08.340Z,3.03
2018-04-23T19:57:35.307Z,3.33
2018-04-23T20:09:47.148Z,4.10
2018-04-23T20:12:17.451Z,3.77
2018-04-23T20:14:43.756Z,3.53
2018-04-23T20:17:10.802Z,3.40
2018-04-23T20:19:38.907Z,4.30
2018-04-23T20:22:05.221Z,3.17
2018-04-23T20:24:31.514Z,3.40
2018-04-23T20:26:58.357Z,3.90
2018-04-23T20:29:24.634Z,3.90
2018-04-23T20:31:50.876Z,3.30
2018-04-23T20:34:18.160Z,3.97
2018-04-23T20:36:46.200Z,4.13
2018-04-23T20:39:12.452Z,4.20
2018-04-23T20:41:38.718Z,4.03
2018-04-23T20:44:06.437Z,4.00
2018-04-23T20:46:32.771Z,3.80
2018-04-23T20:48:59.020Z,3.90
2018-04-23T20:51:25.332Z,3.57
2018-04-23T20:53:51.660Z,3.60
2018-04-23T20:56:17.925Z,4.03
2018-04-23T20:58:44.303Z,4.07
2018-04-23T21:01:10.621Z,3.70
2018-04-23T21:03:37.065Z,3.67
2018-04-23T21:06:03.380Z,3.87
2018-04-23T21:08:30.355Z,3.50
2018-04-23T21:10:56.618Z,4.10
2018-04-23T21:13:22.926Z,4.60
2018-04-23T21:15:49.859Z,3.97
2018-04-23T21:18:16.123Z,4.50
2018-04-23T21:20:42.521Z,4.33
2018-04-23T21:23:08.789Z,4.60
2018-04-23T21:25:34.993Z,4.00
2018-04-23T21:28:01.892Z,4.70
2018-04-23T21:30:28.965Z,3.80
2018-04-23T21:32:55.191Z,4.43
2018-04-23T21:35:22.994Z,3.67
2018-04-23T21:37:49.277Z,4.03
2018-04-23T21:40:16.251Z,4.40
2018-04-23T21:42:42.482Z,4.30
2018-04-23T21:45:08.723Z,4.13
2018-04-23T21:47:34.958Z,3.90
2018-04-23T21:50:01.211Z,4.10
2018-04-23T21:52:28.778Z,4.60
2018-04-23T21:54:56.673Z,4.47
2018-04-23T21:57:24.196Z,4.60
2018-04-23T21:59:51.019Z,3.60
2018-04-23T22:02:18.011Z,3.97
2018-04-23T22:04:44.328Z,4.90
2018-04-23T22:07:13.325Z,4.97
2018-04-23T22:09:42.417Z,3.93
2018-04-23T22:12:09.442Z,4.57
2018-04-23T22:14:35.656Z,4.60
2018-04-23T22:17:02.021Z,4.93
2018-04-23T22:19:28.334Z,4.80
2018-04-23T22:21:55.213Z,5.43
2018-04-23T22:24:23.492Z,4.93
2018-04-23T22:26:49.871Z,4.73
2018-04-23T22:29:16.832Z,4.67
2018-04-23T22:31:43.143Z,5.23
2018-04-23T22:34:09.436Z,4.30
2018-04-23T22:36:35.734Z,4.30
2018-04-23T22:39:03.433Z,4.20
2018-04-23T22:41:29.702Z,4.20
2018-04-23T22:43:55.927Z,4.10
2018-04-23T22:46:22.176Z,4.53
2018-04-23T22:48:48.885Z,4.53
2018-04-23T22:51:15.279Z,3.73
2018-04-23T22:53:42.803Z,3.70
2018-04-23T22:56:08.960Z,4.23
2018-04-23T23:08:20.240Z,3.73
2018-04-23T23:10:46.566Z,4.17
2018-04-23T23:13:12.802Z,3.70
2018-04-23T23:15:39.043Z,3.83
2018-04-23T23:18:05.277Z,3.83
2018-04-23T23:20:31.867Z,4.30
2018-04-23T23:22:58.888Z,3.83
2018-04-23T23:25:26.109Z,3.70
2018-04-23T23:27:53.349Z,4.00
2018-04-23T23:30:19.581Z,3.80
2018-04-23T23:32:46.623Z,4.27
2018-04-23T23:35:12.835Z,3.40
2018-04-23T23:37:39.746Z,4.07
2018-04-23T23:40:05.977Z,4.10
2018-04-23T23:42:33.090Z,4.30
2018-04-23T23:45:02.282Z,3.60
2018-04-23T23:47:28.511Z,4.07
2018-04-23T23:49:55.572Z,3.90
2018-04-23T23:52:21.799Z,3.30
2018-04-23T23:54:48.097Z,3.77
2018-04-23T23:57:15.065Z,4.13
2018-04-23T23:59:41.345Z,3.53
